sensor_id;sensor_type;location;lat;lon;timestamp;P1;durP1;ratioP1;P2;durP2;ratioP2
39772;SDS011;25451;51.960;6.250;2023-06-14T00:01:38;5.27;;;2.30;;
39772;SDS011;25451;51.960;6.250;2023-06-14T00:04:03;5.00;;;2.50;;
39772;SDS011;25451;51.960;6.250;2023-06-14T00:06:30;5.82;;;2.30;;
39772;SDS011;25451;51.960;6.250;2023-06-14T00:08:55;8.85;;;2.50;;
39772;SDS011;25451;51.960;6.250;2023-06-14T00:11:21;4.77;;;2.27;;
39772;SDS011;25451;51.960;6.250;2023-06-14T00:13:46;6.87;;;2.50;;
39772;SDS011;25451;51.960;6.250;2023-06-14T00:16:11;5.13;;;2.37;;
39772;SDS011;25451;51.960;6.250;2023-06-14T00:18:37;7.57;;;2.30;;
39772;SDS011;25451;51.960;6.250;2023-06-14T00:21:03;5.00;;;2.27;;
39772;SDS011;25451;51.960;6.250;2023-06-14T00:23:29;5.43;;;2.38;;
39772;SDS011;25451;51.960;6.250;2023-06-14T00:25:54;5.53;;;2.00;;
39772;SDS011;25451;51.960;6.250;2023-06-14T00:28:20;5.28;;;2.33;;
39772;SDS011;25451;51.960;6.250;2023-06-14T00:30:45;6.80;;;2.30;;
39772;SDS011;25451;51.960;6.250;2023-06-14T00:33:11;8.75;;;2.50;;
39772;SDS011;25451;51.960;6.250;2023-06-14T00:35:36;6.57;;;2.20;;
39772;SDS011;25451;51.960;6.250;2023-06-14T00:38:02;6.37;;;2.10;;
39772;SDS011;25451;51.960;6.250;2023-06-14T00:40:27;7.33;;;2.53;;
39772;SDS011;25451;51.960;6.250;2023-06-14T00:42:52;4.53;;;2.23;;
39772;SDS011;25451;51.960;6.250;2023-06-14T00:45:18;4.17;;;2.30;;
39772;SDS011;25451;51.960;6.250;2023-06-14T00:47:43;7.75;;;2.30;;
39772;SDS011;25451;51.960;6.250;2023-06-14T00:50:11;6.13;;;2.30;;
39772;SDS011;25451;51.960;6.250;2023-06-14T00:52:37;5.82;;;2.05;;
39772;SDS011;25451;51.960;6.250;2023-06-14T00:55:04;4.68;;;2.10;;
39772;SDS011;25451;51.960;6.250;2023-06-14T00:57:29;5.43;;;2.50;;
39772;SDS011;25451;51.960;6.250;2023-06-14T00:59:55;5.80;;;2.23;;
39772;SDS011;25451;51.960;6.250;2023-06-14T01:02:20;6.30;;;2.25;;
39772;SDS011;25451;51.960;6.250;2023-06-14T01:04:47;7.10;;;2.00;;
39772;SDS011;25451;51.960;6.250;2023-06-14T01:15:52;4.53;;;1.90;;
39772;SDS011;25451;51.960;6.250;2023-06-14T01:18:19;6.10;;;2.00;;
39772;SDS011;25451;51.960;6.250;2023-06-14T01:20:45;4.20;;;2.00;;
39772;SDS011;25451;51.960;6.250;2023-06-14T01:23:14;6.17;;;2.10;;
39772;SDS011;25451;51.960;6.250;2023-06-14T01:25:41;5.60;;;2.05;;
39772;SDS011;25451;51.960;6.250;2023-06-14T01:28:09;4.30;;;2.00;;
39772;SDS011;25451;51.960;6.250;2023-06-14T01:30:36;6.20;;;2.10;;
39772;SDS011;25451;51.960;6.250;2023-06-14T01:33:03;4.30;;;2.03;;
39772;SDS011;25451;51.960;6.250;2023-06-14T01:35:30;6.43;;;2.13;;
39772;SDS011;25451;51.960;6.250;2023-06-14T01:37:56;4.97;;;2.20;;
39772;SDS011;25451;51.960;6.250;2023-06-14T01:40:22;4.32;;;1.95;;
39772;SDS011;25451;51.960;6.250;2023-06-14T01:42:49;4.32;;;2.25;;
39772;SDS011;25451;51.960;6.250;2023-06-14T01:45:15;3.87;;;1.83;;
39772;SDS011;25451;51.960;6.250;2023-06-14T01:47:41;4.30;;;1.95;;
39772;SDS011;25451;51.960;6.250;2023-06-14T01:50:08;4.82;;;2.20;;
39772;SDS011;25451;51.960;6.250;2023-06-14T01:52:34;4.70;;;1.90;;
39772;SDS011;25451;51.960;6.250;2023-06-14T01:54:59;5.97;;;1.90;;
39772;SDS011;25451;51.960;6.250;2023-06-14T01:57:27;4.22;;;2.00;;
39772;SDS011;25451;51.960;6.250;2023-06-14T01:59:54;4.05;;;2.13;;
39772;SDS011;25451;51.960;6.250;2023-06-14T02:02:19;7.23;;;2.37;;
39772;SDS011;25451;51.960;6.250;2023-06-14T02:04:45;7.20;;;2.00;;
39772;SDS011;25451;51.960;6.250;2023-06-14T02:07:12;5.40;;;1.92;;
39772;SDS011;25451;51.960;6.250;2023-06-14T02:09:37;6.30;;;2.10;;
39772;SDS011;25451;51.960;6.250;2023-06-14T02:12:03;5.67;;;2.00;;
39772;SDS011;25451;51.960;6.250;2023-06-14T02:14:28;3.80;;;2.10;;
39772;SDS011;25451;51.960;6.250;2023-06-14T02:16:54;4.27;;;2.10;;
39772;SDS011;25451;51.960;6.250;2023-06-14T02:19:19;4.15;;;2.10;;
39772;SDS011;25451;51.960;6.250;2023-06-14T02:21:45;6.03;;;2.03;;
39772;SDS011;25451;51.960;6.250;2023-06-14T02:24:11;5.57;;;2.00;;
39772;SDS011;25451;51.960;6.250;2023-06-14T02:26:37;4.22;;;2.10;;
39772;SDS011;25451;51.960;6.250;2023-06-14T02:29:03;6.70;;;1.90;;
39772;SDS011;25451;51.960;6.250;2023-06-14T02:31:33;5.65;;;2.00;;
39772;SDS011;25451;51.960;6.250;2023-06-14T02:34:00;4.60;;;2.10;;
39772;SDS011;25451;51.960;6.250;2023-06-14T02:36:25;7.57;;;2.10;;
39772;SDS011;25451;51.960;6.250;2023-06-14T02:38:51;3.43;;;1.97;;
39772;SDS011;25451;51.960;6.250;2023-06-14T02:41:19;6.05;;;1.98;;
39772;SDS011;25451;51.960;6.250;2023-06-14T02:43:44;3.63;;;2.03;;
39772;SDS011;25451;51.960;6.250;2023-06-14T02:46:09;6.00;;;2.10;;
39772;SDS011;25451;51.960;6.250;2023-06-14T02:48:36;7.33;;;2.00;;
39772;SDS011;25451;51.960;6.250;2023-06-14T02:51:01;5.57;;;1.95;;
39772;SDS011;25451;51.960;6.250;2023-06-14T02:53:26;3.20;;;1.90;;
39772;SDS011;25451;51.960;6.250;2023-06-14T02:55:52;7.40;;;2.10;;
39772;SDS011;25451;51.960;6.250;2023-06-14T02:58:17;4.30;;;1.80;;
39772;SDS011;25451;51.960;6.250;2023-06-14T03:00:43;4.00;;;2.03;;
39772;SDS011;25451;51.960;6.250;2023-06-14T03:03:08;4.38;;;2.20;;
39772;SDS011;25451;51.960;6.250;2023-06-14T03:05:41;5.32;;;2.45;;
39772;SDS011;25451;51.960;6.250;2023-06-14T03:08:11;6.35;;;2.15;;
39772;SDS011;25451;51.960;6.250;2023-06-14T03:10:41;4.15;;;1.83;;
39772;SDS011;25451;51.960;6.250;2023-06-14T03:13:11;5.03;;;2.10;;
39772;SDS011;25451;51.960;6.250;2023-06-14T03:15:37;4.43;;;2.10;;
39772;SDS011;25451;51.960;6.250;2023-06-14T03:18:03;4.40;;;2.10;;
39772;SDS011;25451;51.960;6.250;2023-06-14T03:20:28;3.97;;;2.15;;
39772;SDS011;25451;51.960;6.250;2023-06-14T03:22:54;9.10;;;2.50;;
39772;SDS011;25451;51.960;6.250;2023-06-14T03:25:20;3.47;;;2.13;;
39772;SDS011;25451;51.960;6.250;2023-06-14T03:27:47;5.63;;;2.00;;
39772;SDS011;25451;51.960;6.250;2023-06-14T03:30:12;7.43;;;2.10;;
39772;SDS011;25451;51.960;6.250;2023-06-14T03:32:38;6.25;;;2.30;;
39772;SDS011;25451;51.960;6.250;2023-06-14T03:35:03;6.43;;;1.93;;
39772;SDS011;25451;51.960;6.250;2023-06-14T03:37:29;3.70;;;2.10;;
39772;SDS011;25451;51.960;6.250;2023-06-14T03:39:54;4.83;;;2.07;;
39772;SDS011;25451;51.960;6.250;2023-06-14T03:42:20;6.30;;;2.00;;
39772;SDS011;25451;51.960;6.250;2023-06-14T03:44:45;6.13;;;2.00;;
39772;SDS011;25451;51.960;6.250;2023-06-14T03:47:10;10.63;;;3.17;;
39772;SDS011;25451;51.960;6.250;2023-06-14T03:49:35;6.13;;;2.10;;
39772;SDS011;25451;51.960;6.250;2023-06-14T03:52:02;7.25;;;2.08;;
39772;SDS011;25451;51.960;6.250;2023-06-14T03:54:28;5.13;;;1.90;;
39772;SDS011;25451;51.960;6.250;2023-06-14T03:56:54;4.30;;;2.65;;
39772;SDS011;25451;51.960;6.250;2023-06-14T03:59:21;7.68;;;2.30;;
39772;SDS011;25451;51.960;6.250;2023-06-14T04:01:47;5.20;;;2.10;;
39772;SDS011;25451;51.960;6.250;2023-06-14T04:04:12;8.43;;;2.10;;
39772;SDS011;25451;51.960;6.250;2023-06-14T04:06:38;5.93;;;2.20;;
39772;SDS011;25451;51.960;6.250;2023-06-14T04:09:06;4.00;;;1.93;;
39772;SDS011;25451;51.960;6.250;2023-06-14T04:11:31;4.73;;;2.10;;
39772;SDS011;25451;51.960;6.250;2023-06-14T04:13:57;3.88;;;1.90;;
39772;SDS011;25451;51.960;6.250;2023-06-14T04:16:23;6.32;;;2.10;;
39772;SDS011;25451;51.960;6.250;2023-06-14T04:18:48;5.00;;;2.10;;
39772;SDS011;25451;51.960;6.250;2023-06-14T04:21:16;6.50;;;2.10;;
39772;SDS011;25451;51.960;6.250;2023-06-14T04:23:41;4.87;;;2.10;;
39772;SDS011;25451;51.960;6.250;2023-06-14T04:26:08;8.50;;;2.58;;
39772;SDS011;25451;51.960;6.250;2023-06-14T04:28:36;4.45;;;2.00;;
39772;SDS011;25451;51.960;6.250;2023-06-14T04:31:06;3.40;;;2.15;;
39772;SDS011;25451;51.960;6.250;2023-06-14T04:33:34;4.88;;;2.03;;
39772;SDS011;25451;51.960;6.250;2023-06-14T04:36:08;6.28;;;2.20;;
39772;SDS011;25451;51.960;6.250;2023-06-14T04:38:38;4.03;;;2.42;;
39772;SDS011;25451;51.960;6.250;2023-06-14T04:41:03;7.17;;;2.27;;
39772;SDS011;25451;51.960;6.250;2023-06-14T04:43:29;5.63;;;2.13;;
39772;SDS011;25451;51.960;6.250;2023-06-14T04:45:56;4.53;;;2.15;;
39772;SDS011;25451;51.960;6.250;2023-06-14T04:48:22;3.60;;;2.13;;
39772;SDS011;25451;51.960;6.250;2023-06-14T04:50:47;6.67;;;2.07;;
39772;SDS011;25451;51.960;6.250;2023-06-14T04:53:13;4.05;;;2.13;;
39772;SDS011;25451;51.960;6.250;2023-06-14T04:55:38;6.37;;;2.30;;
39772;SDS011;25451;51.960;6.250;2023-06-14T04:58:04;7.18;;;2.28;;
39772;SDS011;25451;51.960;6.250;2023-06-14T05:00:30;8.27;;;2.13;;
39772;SDS011;25451;51.960;6.250;2023-06-14T05:02:55;4.53;;;2.20;;
39772;SDS011;25451;51.960;6.250;2023-06-14T05:05:22;5.25;;;2.20;;
39772;SDS011;25451;51.960;6.250;2023-06-14T05:07:47;8.13;;;2.50;;
39772;SDS011;25451;51.960;6.250;2023-06-14T05:10:12;4.93;;;2.20;;
39772;SDS011;25451;51.960;6.250;2023-06-14T05:12:38;7.53;;;2.23;;
39772;SDS011;25451;51.960;6.250;2023-06-14T05:15:03;4.90;;;2.30;;
39772;SDS011;25451;51.960;6.250;2023-06-14T05:17:29;4.50;;;2.20;;
39772;SDS011;25451;51.960;6.250;2023-06-14T05:19:55;6.83;;;2.30;;
39772;SDS011;25451;51.960;6.250;2023-06-14T05:22:23;6.85;;;2.30;;
39772;SDS011;25451;51.960;6.250;2023-06-14T05:24:49;5.22;;;2.20;;
39772;SDS011;25451;51.960;6.250;2023-06-14T05:27:14;4.13;;;2.20;;
39772;SDS011;25451;51.960;6.250;2023-06-14T05:29:40;4.47;;;2.10;;
39772;SDS011;25451;51.960;6.250;2023-06-14T05:32:05;6.40;;;1.93;;
39772;SDS011;25451;51.960;6.250;2023-06-14T05:34:30;5.72;;;2.28;;
39772;SDS011;25451;51.960;6.250;2023-06-14T05:36:56;5.93;;;2.30;;
39772;SDS011;25451;51.960;6.250;2023-06-14T05:39:21;5.97;;;2.30;;
39772;SDS011;25451;51.960;6.250;2023-06-14T05:41:47;5.03;;;2.63;;
39772;SDS011;25451;51.960;6.250;2023-06-14T05:44:12;4.63;;;2.70;;
39772;SDS011;25451;51.960;6.250;2023-06-14T05:46:37;6.43;;;2.57;;
39772;SDS011;25451;51.960;6.250;2023-06-14T05:49:04;5.82;;;2.30;;
39772;SDS011;25451;51.960;6.250;2023-06-14T05:51:30;5.57;;;2.30;;
39772;SDS011;25451;51.960;6.250;2023-06-14T05:53:55;7.63;;;2.40;;
39772;SDS011;25451;51.960;6.250;2023-06-14T05:56:21;5.90;;;2.30;;
39772;SDS011;25451;51.960;6.250;2023-06-14T05:58:46;6.17;;;2.30;;
39772;SDS011;25451;51.960;6.250;2023-06-14T06:01:12;5.30;;;2.08;;
39772;SDS011;25451;51.960;6.250;2023-06-14T06:03:38;4.80;;;2.00;;
39772;SDS011;25451;51.960;6.250;2023-06-14T06:06:03;7.50;;;2.10;;
39772;SDS011;25451;51.960;6.250;2023-06-14T06:08:29;3.90;;;2.20;;
39772;SDS011;25451;51.960;6.250;2023-06-14T06:10:54;4.87;;;2.10;;
39772;SDS011;25451;51.960;6.250;2023-06-14T06:13:20;3.42;;;2.30;;
39772;SDS011;25451;51.960;6.250;2023-06-14T06:15:46;7.53;;;2.30;;
39772;SDS011;25451;51.960;6.250;2023-06-14T06:18:11;4.57;;;2.20;;
39772;SDS011;25451;51.960;6.250;2023-06-14T06:20:37;4.85;;;2.03;;
39772;SDS011;25451;51.960;6.250;2023-06-14T06:23:02;4.13;;;1.90;;
39772;SDS011;25451;51.960;6.250;2023-06-14T06:25:28;6.13;;;2.03;;
39772;SDS011;25451;51.960;6.250;2023-06-14T06:27:54;6.47;;;2.08;;
39772;SDS011;25451;51.960;6.250;2023-06-14T06:30:21;7.35;;;2.30;;
39772;SDS011;25451;51.960;6.250;2023-06-14T06:32:47;4.37;;;1.93;;
39772;SDS011;25451;51.960;6.250;2023-06-14T06:35:12;5.20;;;2.30;;
39772;SDS011;25451;51.960;6.250;2023-06-14T06:37:38;6.03;;;2.00;;
39772;SDS011;25451;51.960;6.250;2023-06-14T06:40:04;6.50;;;2.17;;
39772;SDS011;25451;51.960;6.250;2023-06-14T06:42:31;3.35;;;2.00;;
39772;SDS011;25451;51.960;6.250;2023-06-14T06:44:56;5.68;;;1.80;;
39772;SDS011;25451;51.960;6.250;2023-06-14T06:47:22;4.90;;;1.80;;
39772;SDS011;25451;51.960;6.250;2023-06-14T06:49:47;3.43;;;1.87;;
39772;SDS011;25451;51.960;6.250;2023-06-14T06:52:13;3.30;;;1.80;;
39772;SDS011;25451;51.960;6.250;2023-06-14T06:54:38;4.60;;;1.67;;
39772;SDS011;25451;51.960;6.250;2023-06-14T06:57:04;4.07;;;1.90;;
39772;SDS011;25451;51.960;6.250;2023-06-14T06:59:30;2.80;;;1.50;;
39772;SDS011;25451;51.960;6.250;2023-06-14T07:01:56;3.90;;;1.60;;
39772;SDS011;25451;51.960;6.250;2023-06-14T07:04:21;7.93;;;1.65;;
39772;SDS011;25451;51.960;6.250;2023-06-14T07:06:46;4.90;;;1.73;;
39772;SDS011;25451;51.960;6.250;2023-06-14T07:09:12;3.60;;;1.50;;
39772;SDS011;25451;51.960;6.250;2023-06-14T07:11:39;5.13;;;1.60;;
39772;SDS011;25451;51.960;6.250;2023-06-14T07:14:05;2.60;;;1.57;;
39772;SDS011;25451;51.960;6.250;2023-06-14T07:16:30;3.70;;;1.40;;
39772;SDS011;25451;51.960;6.250;2023-06-14T07:18:56;2.60;;;1.50;;
39772;SDS011;25451;51.960;6.250;2023-06-14T07:21:21;3.57;;;1.50;;
39772;SDS011;25451;51.960;6.250;2023-06-14T07:23:46;3.67;;;1.30;;
39772;SDS011;25451;51.960;6.250;2023-06-14T07:26:12;4.05;;;1.50;;
39772;SDS011;25451;51.960;6.250;2023-06-14T07:28:37;3.53;;;1.60;;
39772;SDS011;25451;51.960;6.250;2023-06-14T07:31:02;2.50;;;1.50;;
39772;SDS011;25451;51.960;6.250;2023-06-14T07:33:28;5.23;;;1.50;;
39772;SDS011;25451;51.960;6.250;2023-06-14T07:35:53;4.23;;;1.60;;
39772;SDS011;25451;51.960;6.250;2023-06-14T07:38:19;4.73;;;1.60;;
39772;SDS011;25451;51.960;6.250;2023-06-14T07:40:44;5.20;;;1.77;;
39772;SDS011;25451;51.960;6.250;2023-06-14T07:43:09;4.30;;;1.40;;
39772;SDS011;25451;51.960;6.250;2023-06-14T07:45:34;3.17;;;1.60;;
39772;SDS011;25451;51.960;6.250;2023-06-14T07:48:00;4.13;;;1.47;;
39772;SDS011;25451;51.960;6.250;2023-06-14T07:50:25;4.00;;;2.10;;
39772;SDS011;25451;51.960;6.250;2023-06-14T07:52:50;3.93;;;1.50;;
39772;SDS011;25451;51.960;6.250;2023-06-14T07:55:16;2.63;;;1.50;;
39772;SDS011;25451;51.960;6.250;2023-06-14T07:57:41;6.50;;;1.50;;
39772;SDS011;25451;51.960;6.250;2023-06-14T08:00:08;3.00;;;1.35;;
39772;SDS011;25451;51.960;6.250;2023-06-14T08:02:35;3.35;;;1.55;;
39772;SDS011;25451;51.960;6.250;2023-06-14T08:05:00;3.70;;;1.87;;
39772;SDS011;25451;51.960;6.250;2023-06-14T08:07:26;5.97;;;1.60;;
39772;SDS011;25451;51.960;6.250;2023-06-14T08:09:51;4.53;;;1.63;;
39772;SDS011;25451;51.960;6.250;2023-06-14T08:12:16;3.53;;;1.60;;
39772;SDS011;25451;51.960;6.250;2023-06-14T08:14:42;3.63;;;2.07;;
39772;SDS011;25451;51.960;6.250;2023-06-14T08:17:07;3.03;;;1.50;;
39772;SDS011;25451;51.960;6.250;2023-06-14T08:19:33;4.43;;;1.93;;
39772;SDS011;25451;51.960;6.250;2023-06-14T08:21:58;6.30;;;1.60;;
39772;SDS011;25451;51.960;6.250;2023-06-14T08:24:24;2.95;;;1.52;;
39772;SDS011;25451;51.960;6.250;2023-06-14T08:26:52;3.40;;;1.45;;
39772;SDS011;25451;51.960;6.250;2023-06-14T08:29:21;3.08;;;1.52;;
39772;SDS011;25451;51.960;6.250;2023-06-14T08:31:47;3.57;;;1.60;;
39772;SDS011;25451;51.960;6.250;2023-06-14T08:34:12;2.65;;;1.40;;
39772;SDS011;25451;51.960;6.250;2023-06-14T08:36:38;3.33;;;1.60;;
39772;SDS011;25451;51.960;6.250;2023-06-14T08:39:03;4.80;;;1.70;;
39772;SDS011;25451;51.960;6.250;2023-06-14T08:41:28;5.07;;;1.50;;
39772;SDS011;25451;51.960;6.250;2023-06-14T08:43:54;2.80;;;1.60;;
39772;SDS011;25451;51.960;6.250;2023-06-14T08:46:20;4.18;;;1.90;;
39772;SDS011;25451;51.960;6.250;2023-06-14T08:48:50;4.73;;;1.50;;
39772;SDS011;25451;51.960;6.250;2023-06-14T08:51:20;4.72;;;1.40;;
39772;SDS011;25451;51.960;6.250;2023-06-14T08:53:55;3.42;;;1.40;;
39772;SDS011;25451;51.960;6.250;2023-06-14T08:56:26;3.65;;;1.50;;
39772;SDS011;25451;51.960;6.250;2023-06-14T08:58:52;3.65;;;1.30;;
39772;SDS011;25451;51.960;6.250;2023-06-14T09:01:19;4.03;;;1.50;;
39772;SDS011;25451;51.960;6.250;2023-06-14T09:03:47;2.25;;;1.40;;
39772;SDS011;25451;51.960;6.250;2023-06-14T09:06:13;2.33;;;1.20;;
39772;SDS011;25451;51.960;6.250;2023-06-14T09:08:42;5.47;;;1.37;;
39772;SDS011;25451;51.960;6.250;2023-06-14T09:11:10;4.30;;;1.30;;
39772;SDS011;25451;51.960;6.250;2023-06-14T09:13:37;2.45;;;1.38;;
39772;SDS011;25451;51.960;6.250;2023-06-14T09:16:02;3.37;;;1.40;;
39772;SDS011;25451;51.960;6.250;2023-06-14T09:18:38;2.67;;;1.40;;
39772;SDS011;25451;51.960;6.250;2023-06-14T09:21:09;4.80;;;1.33;;
39772;SDS011;25451;51.960;6.250;2023-06-14T09:23:38;2.42;;;1.20;;
39772;SDS011;25451;51.960;6.250;2023-06-14T09:26:14;4.03;;;1.50;;
39772;SDS011;25451;51.960;6.250;2023-06-14T09:28:42;3.30;;;1.30;;
39772;SDS011;25451;51.960;6.250;2023-06-14T09:31:08;5.22;;;1.40;;
39772;SDS011;25451;51.960;6.250;2023-06-14T09:33:34;5.47;;;1.30;;
39772;SDS011;25451;51.960;6.250;2023-06-14T09:36:00;2.07;;;1.30;;
39772;SDS011;25451;51.960;6.250;2023-06-14T09:38:25;4.22;;;1.33;;
39772;SDS011;25451;51.960;6.250;2023-06-14T09:40:51;2.67;;;1.33;;
39772;SDS011;25451;51.960;6.250;2023-06-14T09:43:17;2.22;;;1.20;;
39772;SDS011;25451;51.960;6.250;2023-06-14T09:45:43;3.27;;;1.23;;
39772;SDS011;25451;51.960;6.250;2023-06-14T09:48:11;1.55;;;1.05;;
39772;SDS011;25451;51.960;6.250;2023-06-14T09:50:37;2.25;;;1.05;;
39772;SDS011;25451;51.960;6.250;2023-06-14T09:53:03;3.47;;;1.25;;
39772;SDS011;25451;51.960;6.250;2023-06-14T09:55:34;3.10;;;1.00;;
39772;SDS011;25451;51.960;6.250;2023-06-14T09:58:02;5.35;;;1.30;;
39772;SDS011;25451;51.960;6.250;2023-06-14T10:00:30;5.38;;;1.17;;
39772;SDS011;25451;51.960;6.250;2023-06-14T10:02:59;3.08;;;1.10;;
39772;SDS011;25451;51.960;6.250;2023-06-14T10:05:28;1.80;;;1.10;;
39772;SDS011;25451;51.960;6.250;2023-06-14T10:08:02;3.37;;;1.20;;
39772;SDS011;25451;51.960;6.250;2023-06-14T10:10:33;2.65;;;1.10;;
39772;SDS011;25451;51.960;6.250;2023-06-14T10:12:58;4.43;;;1.17;;
39772;SDS011;25451;51.960;6.250;2023-06-14T10:15:28;1.97;;;1.17;;
39772;SDS011;25451;51.960;6.250;2023-06-14T10:17:59;3.10;;;1.17;;
39772;SDS011;25451;51.960;6.250;2023-06-14T10:21:01;2.53;;;1.50;;
39772;SDS011;25451;51.960;6.250;2023-06-14T10:23:33;6.43;;;1.20;;
39772;SDS011;25451;51.960;6.250;2023-06-14T10:26:03;2.28;;;1.27;;
39772;SDS011;25451;51.960;6.250;2023-06-14T10:28:28;2.43;;;1.30;;
39772;SDS011;25451;51.960;6.250;2023-06-14T10:31:01;5.32;;;1.50;;
39772;SDS011;25451;51.960;6.250;2023-06-14T10:33:33;2.70;;;1.50;;
39772;SDS011;25451;51.960;6.250;2023-06-14T10:38:46;4.45;;;1.40;;
39772;SDS011;25451;51.960;6.250;2023-06-14T10:41:29;3.53;;;1.35;;
39772;SDS011;25451;51.960;6.250;2023-06-14T10:44:10;4.38;;;1.40;;
39772;SDS011;25451;51.960;6.250;2023-06-14T10:46:35;2.70;;;1.40;;
39772;SDS011;25451;51.960;6.250;2023-06-14T10:49:01;2.45;;;1.30;;
39772;SDS011;25451;51.960;6.250;2023-06-14T10:51:29;2.07;;;1.10;;
39772;SDS011;25451;51.960;6.250;2023-06-14T10:53:55;4.47;;;1.30;;
39772;SDS011;25451;51.960;6.250;2023-06-14T10:56:27;2.63;;;1.40;;
39772;SDS011;25451;51.960;6.250;2023-06-14T10:58:54;5.95;;;1.40;;
39772;SDS011;25451;51.960;6.250;2023-06-14T11:01:37;4.25;;;1.30;;
39772;SDS011;25451;51.960;6.250;2023-06-14T11:04:10;4.50;;;1.60;;
39772;SDS011;25451;51.960;6.250;2023-06-14T11:06:46;2.50;;;1.40;;
39772;SDS011;25451;51.960;6.250;2023-06-14T11:11:57;2.92;;;1.40;;
39772;SDS011;25451;51.960;6.250;2023-06-14T11:14:23;2.30;;;1.30;;
39772;SDS011;25451;51.960;6.250;2023-06-14T11:16:49;3.30;;;1.40;;
39772;SDS011;25451;51.960;6.250;2023-06-14T11:19:15;5.13;;;1.33;;
39772;SDS011;25451;51.960;6.250;2023-06-14T11:21:42;3.10;;;1.27;;
39772;SDS011;25451;51.960;6.250;2023-06-14T11:24:10;2.90;;;1.38;;
39772;SDS011;25451;51.960;6.250;2023-06-14T11:26:37;11.43;;;1.73;;
39772;SDS011;25451;51.960;6.250;2023-06-14T11:29:03;8.40;;;1.50;;
39772;SDS011;25451;51.960;6.250;2023-06-14T11:31:28;6.90;;;1.40;;
39772;SDS011;25451;51.960;6.250;2023-06-14T11:33:54;7.30;;;1.63;;
39772;SDS011;25451;51.960;6.250;2023-06-14T11:36:30;6.43;;;1.27;;
39772;SDS011;25451;51.960;6.250;2023-06-14T11:39:03;2.80;;;1.30;;
39772;SDS011;25451;51.960;6.250;2023-06-14T11:41:33;2.43;;;1.10;;
39772;SDS011;25451;51.960;6.250;2023-06-14T11:44:03;3.72;;;1.15;;
39772;SDS011;25451;51.960;6.250;2023-06-14T11:46:28;3.28;;;1.20;;
39772;SDS011;25451;51.960;6.250;2023-06-14T11:48:54;2.77;;;1.30;;
39772;SDS011;25451;51.960;6.250;2023-06-14T11:51:19;2.30;;;1.20;;
39772;SDS011;25451;51.960;6.250;2023-06-14T11:53:45;4.80;;;1.40;;
39772;SDS011;25451;51.960;6.250;2023-06-14T11:56:11;2.83;;;1.30;;
39772;SDS011;25451;51.960;6.250;2023-06-14T11:58:37;3.20;;;1.20;;
39772;SDS011;25451;51.960;6.250;2023-06-14T12:01:05;3.73;;;1.20;;
39772;SDS011;25451;51.960;6.250;2023-06-14T12:03:30;2.22;;;1.30;;
39772;SDS011;25451;51.960;6.250;2023-06-14T12:06:05;2.10;;;1.10;;
39772;SDS011;25451;51.960;6.250;2023-06-14T12:08:37;1.70;;;1.10;;
39772;SDS011;25451;51.960;6.250;2023-06-14T12:11:12;2.05;;;0.90;;
39772;SDS011;25451;51.960;6.250;2023-06-14T12:13:40;2.42;;;1.10;;
39772;SDS011;25451;51.960;6.250;2023-06-14T12:16:07;2.50;;;1.17;;
39772;SDS011;25451;51.960;6.250;2023-06-14T12:18:34;1.77;;;1.00;;
39772;SDS011;25451;51.960;6.250;2023-06-14T12:21:01;1.70;;;1.00;;
39772;SDS011;25451;51.960;6.250;2023-06-14T12:23:49;1.95;;;1.20;;
39772;SDS011;25451;51.960;6.250;2023-06-14T12:26:18;6.35;;;1.10;;
39772;SDS011;25451;51.960;6.250;2023-06-14T12:28:45;4.85;;;1.00;;
39772;SDS011;25451;51.960;6.250;2023-06-14T12:31:11;3.90;;;1.00;;
39772;SDS011;25451;51.960;6.250;2023-06-14T12:33:38;3.58;;;0.95;;
39772;SDS011;25451;51.960;6.250;2023-06-14T12:36:05;4.65;;;1.00;;
39772;SDS011;25451;51.960;6.250;2023-06-14T12:38:32;1.60;;;1.00;;
39772;SDS011;25451;51.960;6.250;2023-06-14T12:40:58;4.80;;;1.10;;
39772;SDS011;25451;51.960;6.250;2023-06-14T12:43:23;4.17;;;1.10;;
39772;SDS011;25451;51.960;6.250;2023-06-14T12:45:49;2.93;;;1.10;;
39772;SDS011;25451;51.960;6.250;2023-06-14T12:48:14;2.13;;;1.07;;
39772;SDS011;25451;51.960;6.250;2023-06-14T12:50:40;3.17;;;1.13;;
39772;SDS011;25451;51.960;6.250;2023-06-14T12:53:05;3.00;;;1.00;;
39772;SDS011;25451;51.960;6.250;2023-06-14T12:55:31;1.83;;;1.00;;
39772;SDS011;25451;51.960;6.250;2023-06-14T12:57:57;1.30;;;0.95;;
39772;SDS011;25451;51.960;6.250;2023-06-14T13:00:22;1.50;;;1.00;;
39772;SDS011;25451;51.960;6.250;2023-06-14T13:02:48;1.67;;;1.00;;
39772;SDS011;25451;51.960;6.250;2023-06-14T13:05:13;3.27;;;1.20;;
39772;SDS011;25451;51.960;6.250;2023-06-14T13:07:39;2.40;;;1.10;;
39772;SDS011;25451;51.960;6.250;2023-06-14T13:10:04;6.07;;;1.30;;
39772;SDS011;25451;51.960;6.250;2023-06-14T13:12:30;3.40;;;1.10;;
39772;SDS011;25451;51.960;6.250;2023-06-14T13:14:55;1.83;;;0.90;;
39772;SDS011;25451;51.960;6.250;2023-06-14T13:17:20;3.15;;;0.98;;
39772;SDS011;25451;51.960;6.250;2023-06-14T13:19:46;3.57;;;1.10;;
39772;SDS011;25451;51.960;6.250;2023-06-14T13:22:11;1.57;;;1.00;;
39772;SDS011;25451;51.960;6.250;2023-06-14T13:24:36;3.03;;;1.00;;
39772;SDS011;25451;51.960;6.250;2023-06-14T13:27:02;2.80;;;0.83;;
39772;SDS011;25451;51.960;6.250;2023-06-14T13:29:27;2.93;;;1.00;;
39772;SDS011;25451;51.960;6.250;2023-06-14T13:31:53;1.35;;;0.93;;
39772;SDS011;25451;51.960;6.250;2023-06-14T13:34:18;3.33;;;0.93;;
39772;SDS011;25451;51.960;6.250;2023-06-14T13:36:44;3.37;;;1.03;;
39772;SDS011;25451;51.960;6.250;2023-06-14T13:39:09;5.23;;;1.23;;
39772;SDS011;25451;51.960;6.250;2023-06-14T13:41:36;2.47;;;1.17;;
39772;SDS011;25451;51.960;6.250;2023-06-14T13:44:01;1.97;;;1.10;;
39772;SDS011;25451;51.960;6.250;2023-06-14T13:46:29;4.10;;;1.10;;
39772;SDS011;25451;51.960;6.250;2023-06-14T13:48:54;2.27;;;1.00;;
39772;SDS011;25451;51.960;6.250;2023-06-14T13:51:20;4.27;;;1.60;;
39772;SDS011;25451;51.960;6.250;2023-06-14T13:53:46;1.73;;;1.10;;
39772;SDS011;25451;51.960;6.250;2023-06-14T13:56:13;2.22;;;1.00;;
39772;SDS011;25451;51.960;6.250;2023-06-14T13:58:39;2.77;;;1.00;;
39772;SDS011;25451;51.960;6.250;2023-06-14T14:01:04;3.87;;;1.20;;
39772;SDS011;25451;51.960;6.250;2023-06-14T14:03:30;4.10;;;1.20;;
39772;SDS011;25451;51.960;6.250;2023-06-14T14:05:55;2.85;;;0.90;;
39772;SDS011;25451;51.960;6.250;2023-06-14T14:08:21;3.90;;;1.20;;
39772;SDS011;25451;51.960;6.250;2023-06-14T14:10:46;2.90;;;1.20;;
39772;SDS011;25451;51.960;6.250;2023-06-14T14:13:12;4.72;;;1.30;;
39772;SDS011;25451;51.960;6.250;2023-06-14T14:15:37;6.40;;;1.20;;
39772;SDS011;25451;51.960;6.250;2023-06-14T14:18:03;2.93;;;1.03;;
39772;SDS011;25451;51.960;6.250;2023-06-14T14:20:29;4.13;;;1.20;;
39772;SDS011;25451;51.960;6.250;2023-06-14T14:22:55;2.35;;;1.20;;
39772;SDS011;25451;51.960;6.250;2023-06-14T14:25:21;2.20;;;1.07;;
39772;SDS011;25451;51.960;6.250;2023-06-14T14:27:46;2.78;;;0.95;;
39772;SDS011;25451;51.960;6.250;2023-06-14T14:30:12;4.97;;;1.20;;
39772;SDS011;25451;51.960;6.250;2023-06-14T14:32:39;2.90;;;1.20;;
39772;SDS011;25451;51.960;6.250;2023-06-14T14:35:05;1.70;;;1.20;;
39772;SDS011;25451;51.960;6.250;2023-06-14T14:37:31;2.38;;;1.10;;
39772;SDS011;25451;51.960;6.250;2023-06-14T14:39:56;6.87;;;1.40;;
39772;SDS011;25451;51.960;6.250;2023-06-14T14:42:22;1.50;;;1.10;;
39772;SDS011;25451;51.960;6.250;2023-06-14T14:44:47;3.40;;;1.10;;
39772;SDS011;25451;51.960;6.250;2023-06-14T14:47:13;2.70;;;1.35;;
39772;SDS011;25451;51.960;6.250;2023-06-14T14:49:39;1.77;;;1.10;;
39772;SDS011;25451;51.960;6.250;2023-06-14T14:52:04;7.73;;;1.20;;
39772;SDS011;25451;51.960;6.250;2023-06-14T14:54:30;5.15;;;1.27;;
39772;SDS011;25451;51.960;6.250;2023-06-14T14:56:55;2.33;;;1.27;;
39772;SDS011;25451;51.960;6.250;2023-06-14T14:59:20;3.57;;;1.30;;